createdAt,value
2023-05-08T00:00:04.682Z,7.28
2023-05-08T00:01:04.786Z,7.30
2023-05-08T00:02:04.881Z,7.30
2023-05-08T00:03:05.032Z,7.31
2023-05-08T00:04:05.197Z,7.30
2023-05-08T00:05:05.279Z,7.24
2023-05-08T00:06:05.279Z,7.23
2023-05-08T00:07:05.301Z,7.24
2023-05-08T00:08:05.388Z,7.24
2023-05-08T00:09:05.482Z,7.20
2023-05-08T00:10:05.560Z,7.17
2023-05-08T00:11:05.680Z,7.17
2023-05-08T00:12:05.808Z,7.16
2023-05-08T00:13:05.834Z,7.16
2023-05-08T00:14:05.949Z,7.13
2023-05-08T00:15:05.969Z,7.12
2023-05-08T00:16:06.163Z,7.15
2023-05-08T00:17:06.291Z,7.09
2023-05-08T00:18:06.268Z,7.12
2023-05-08T00:19:06.324Z,7.10
2023-05-08T00:20:06.353Z,7.12
2023-05-08T00:21:06.434Z,7.05
2023-05-08T00:22:06.581Z,7.03
2023-05-08T00:23:06.607Z,7.03
2023-05-08T00:24:06.705Z,6.98
2023-05-08T00:25:06.753Z,6.95
2023-05-08T00:26:06.826Z,6.94
2023-05-08T00:27:06.882Z,6.92
2023-05-08T00:28:06.968Z,6.92
2023-05-08T00:29:07.121Z,6.92
2023-05-08T00:30:07.095Z,6.81
2023-05-08T00:31:07.207Z,6.87
2023-05-08T00:32:07.352Z,6.85
2023-05-08T00:33:07.471Z,6.85
2023-05-08T00:34:07.486Z,6.81
2023-05-08T00:35:07.575Z,6.80
2023-05-08T00:36:07.646Z,6.81
2023-05-08T00:37:07.704Z,6.81
2023-05-08T00:38:07.821Z,6.79
2023-05-08T00:39:07.897Z,6.77
2023-05-08T00:40:07.937Z,6.80
2023-05-08T00:41:08.026Z,6.79
2023-05-08T00:42:08.134Z,6.74
2023-05-08T00:43:08.234Z,6.74
2023-05-08T00:44:08.312Z,6.73
2023-05-08T00:45:08.418Z,6.73
2023-05-08T00:46:08.580Z,6.70
2023-05-08T00:47:08.558Z,6.73
2023-05-08T00:48:08.645Z,6.70
2023-05-08T00:49:08.755Z,6.66
2023-05-08T00:50:08.826Z,6.67
2023-05-08T00:51:08.937Z,6.69
2023-05-08T00:52:09.007Z,6.71
2023-05-08T00:53:09.052Z,6.70
2023-05-08T00:54:09.206Z,6.69
2023-05-08T00:55:09.242Z,6.70
2023-05-08T00:56:09.297Z,6.67
2023-05-08T00:57:09.357Z,6.67
2023-05-08T00:58:09.450Z,6.64
2023-05-08T00:59:09.572Z,6.66
2023-05-08T01:00:09.610Z,6.67
2023-05-08T01:01:09.692Z,6.67
2023-05-08T01:02:09.820Z,6.62
2023-05-08T01:03:09.914Z,6.61
2023-05-08T01:04:09.995Z,6.56
2023-05-08T01:05:10.005Z,6.58
2023-05-08T01:06:10.105Z,6.58
2023-05-08T01:07:10.204Z,6.54
2023-05-08T01:08:10.286Z,6.51
2023-05-08T01:09:10.428Z,6.55
2023-05-08T01:10:10.667Z,6.54
2023-05-08T01:11:10.575Z,6.56
2023-05-08T01:12:10.659Z,6.55
2023-05-08T01:13:10.772Z,6.54
2023-05-08T01:14:10.835Z,6.55
2023-05-08T01:15:10.902Z,6.58
2023-05-08T01:16:10.995Z,6.55
2023-05-08T01:17:11.066Z,6.49
2023-05-08T01:18:11.115Z,6.48
2023-05-08T01:19:11.258Z,6.46
2023-05-08T01:20:11.693Z,6.44
2023-05-08T01:21:11.365Z,6.38
2023-05-08T01:22:11.524Z,6.37
2023-05-08T01:23:11.525Z,6.38
2023-05-08T01:24:11.614Z,6.38
2023-05-08T01:25:11.712Z,6.38
2023-05-08T01:26:11.804Z,6.40
2023-05-08T01:27:11.932Z,6.41
2023-05-08T01:28:12.011Z,6.40
2023-05-08T01:29:12.084Z,6.30
2023-05-08T01:30:12.444Z,6.31
2023-05-08T01:31:12.261Z,6.28
2023-05-08T01:32:12.322Z,6.30
2023-05-08T01:33:12.502Z,6.30
2023-05-08T01:34:12.467Z,6.27
2023-05-08T01:35:12.605Z,6.22
2023-05-08T01:36:12.625Z,6.28
2023-05-08T01:37:12.720Z,6.27
2023-05-08T01:38:12.798Z,6.27
2023-05-08T01:39:12.935Z,6.25
2023-05-08T01:40:13.404Z,6.21
2023-05-08T01:41:13.096Z,6.25
2023-05-08T01:42:13.202Z,6.22
2023-05-08T01:43:13.258Z,6.22
2023-05-08T01:44:13.356Z,6.21
2023-05-08T01:45:13.408Z,6.22
2023-05-08T01:46:13.523Z,6.14
2023-05-08T01:47:13.597Z,6.15
2023-05-08T01:48:13.635Z,6.14
2023-05-08T01:49:13.690Z,6.14
2023-05-08T01:50:14.043Z,6.19
2023-05-08T01:51:13.940Z,6.15
2023-05-08T01:52:14.005Z,6.14
2023-05-08T01:53:14.094Z,6.12
2023-05-08T01:54:14.152Z,6.12
2023-05-08T01:55:14.224Z,6.12
2023-05-08T01:56:14.315Z,6.14
2023-05-08T01:57:14.419Z,6.11
2023-05-08T01:58:14.464Z,6.06
2023-05-08T01:59:14.564Z,6.08
2023-05-08T02:01:14.787Z,6.06
2023-05-08T02:02:14.993Z,6.00
2023-05-08T02:03:15.040Z,6.01
2023-05-08T02:04:15.077Z,5.96
2023-05-08T02:05:15.154Z,5.96
2023-05-08T02:06:15.202Z,5.93
2023-05-08T02:07:15.346Z,5.93
2023-05-08T02:08:15.400Z,5.82
2023-05-08T02:09:15.446Z,5.79
2023-05-08T02:10:15.701Z,5.78
2023-05-08T02:11:15.632Z,5.79
2023-05-08T02:12:15.730Z,5.76
2023-05-08T02:13:15.870Z,5.74
2023-05-08T02:14:15.890Z,5.75
2023-05-08T02:15:15.982Z,5.72
2023-05-08T02:16:16.082Z,5.71
2023-05-08T02:17:16.157Z,5.67
2023-05-08T02:18:16.330Z,5.72
2023-05-08T02:19:16.377Z,5.68
2023-05-08T02:20:16.480Z,5.71
2023-05-08T02:21:16.532Z,5.67
2023-05-08T02:22:16.587Z,5.63
2023-05-08T02:23:16.691Z,5.60
2023-05-08T02:24:16.801Z,5.67
2023-05-08T02:25:16.833Z,5.65
2023-05-08T02:26:16.891Z,5.65
2023-05-08T02:27:16.954Z,5.65
2023-05-08T02:28:17.068Z,5.58
2023-05-08T02:29:17.164Z,5.63
2023-05-08T02:30:17.234Z,5.56
2023-05-08T02:31:17.352Z,5.61
2023-05-08T02:32:17.607Z,5.58
2023-05-08T02:33:17.471Z,5.60
2023-05-08T02:34:17.561Z,5.56
2023-05-08T02:35:17.710Z,5.51
2023-05-08T02:36:17.785Z,5.46
2023-05-08T02:37:17.798Z,5.51
2023-05-08T02:38:17.846Z,5.40
2023-05-08T02:39:17.950Z,5.45
2023-05-08T02:40:18.072Z,5.39
2023-05-08T02:41:18.176Z,5.40
2023-05-08T02:42:18.239Z,5.35
2023-05-08T02:43:18.334Z,5.31
2023-05-08T02:44:18.563Z,5.31
2023-05-08T02:45:18.556Z,5.27
2023-05-08T02:46:18.707Z,5.27
2023-05-08T02:47:18.711Z,5.25
2023-05-08T02:48:18.791Z,5.27
2023-05-08T02:49:18.897Z,5.27
2023-05-08T02:50:18.949Z,5.28
2023-05-08T02:51:19.067Z,5.24
2023-05-08T02:52:19.135Z,5.22
2023-05-08T02:53:19.244Z,5.20
2023-05-08T02:54:19.265Z,5.18
2023-05-08T02:55:19.332Z,5.22
2023-05-08T02:56:19.474Z,5.22
2023-05-08T02:57:19.531Z,5.13
2023-05-08T02:58:19.624Z,5.21
2023-05-08T02:59:19.706Z,5.18
2023-05-08T03:00:19.776Z,5.17
2023-05-08T03:01:19.930Z,5.10
2023-05-08T03:02:19.989Z,5.18
2023-05-08T03:03:20.070Z,5.17
2023-05-08T03:04:20.140Z,5.12
2023-05-08T03:05:20.204Z,5.10
2023-05-08T03:06:20.273Z,5.12
2023-05-08T03:07:20.401Z,5.09
2023-05-08T03:08:20.478Z,5.04
2023-05-08T03:09:20.529Z,5.06
2023-05-08T03:10:20.619Z,5.04
2023-05-08T03:11:20.705Z,5.06
2023-05-08T03:12:20.817Z,5.00
2023-05-08T03:13:20.955Z,5.00
2023-05-08T03:14:20.952Z,4.97
2023-05-08T03:15:21.041Z,5.02
2023-05-08T03:16:21.179Z,4.96
2023-05-08T03:17:21.202Z,4.97
2023-05-08T03:18:21.297Z,4.97
2023-05-08T03:19:23.001Z,4.92
2023-05-08T03:20:21.431Z,4.92
2023-05-08T03:21:21.497Z,4.94
2023-05-08T03:22:21.612Z,4.92
2023-05-08T03:23:21.739Z,4.92
2023-05-08T03:24:21.766Z,4.89
2023-05-08T03:25:21.831Z,4.86
2023-05-08T03:26:21.882Z,4.88
2023-05-08T03:27:21.982Z,4.88
2023-05-08T03:28:22.060Z,4.85
2023-05-08T03:29:22.185Z,4.88
2023-05-08T03:30:22.245Z,4.84
2023-05-08T03:31:22.319Z,4.84
2023-05-08T03:32:22.389Z,4.85
2023-05-08T03:33:22.464Z,4.84
2023-05-08T03:34:22.599Z,4.80
2023-05-08T03:35:22.632Z,4.84
2023-05-08T03:36:22.725Z,4.84
2023-05-08T03:37:22.742Z,4.86
2023-05-08T03:38:22.885Z,4.82
2023-05-08T03:39:22.936Z,4.85
2023-05-08T03:40:23.060Z,4.91
2023-05-08T03:41:23.114Z,4.85
2023-05-08T03:42:23.187Z,4.92
2023-05-08T03:43:23.286Z,4.89
2023-05-08T03:44:23.342Z,4.89
2023-05-08T03:45:23.468Z,4.91
2023-05-08T03:46:23.599Z,4.92
2023-05-08T03:47:23.616Z,4.86
2023-05-08T03:48:23.679Z,4.88
2023-05-08T03:49:23.761Z,4.86
2023-05-08T03:50:23.938Z,4.86
2023-05-08T03:51:23.998Z,4.86
2023-05-08T03:52:24.726Z,4.86
2023-05-08T03:53:24.116Z,4.89
2023-05-08T03:54:24.250Z,4.89
2023-05-08T03:55:24.313Z,4.89
2023-05-08T03:56:26.057Z,4.91
2023-05-08T03:57:24.461Z,4.89
2023-05-08T03:58:24.542Z,4.86
2023-05-08T03:59:24.641Z,4.88
2023-05-08T04:00:24.702Z,4.89
2023-05-08T04:01:24.799Z,4.86
2023-05-08T04:02:24.960Z,4.86
2023-05-08T04:03:25.025Z,4.94
2023-05-08T04:04:25.006Z,4.88
2023-05-08T04:05:25.083Z,4.82
2023-05-08T04:06:26.021Z,4.86
2023-05-08T04:07:25.292Z,4.85
2023-05-08T04:08:25.335Z,4.82
2023-05-08T04:09:25.428Z,4.82
2023-05-08T04:10:25.486Z,4.86
2023-05-08T04:11:25.576Z,4.84
2023-05-08T04:12:25.701Z,4.84
2023-05-08T04:13:25.865Z,4.86
2023-05-08T04:14:25.889Z,4.89
2023-05-08T04:15:25.918Z,4.88
2023-05-08T04:16:26.024Z,4.89
2023-05-08T04:17:26.183Z,4.92
2023-05-08T04:18:26.180Z,4.91
2023-05-08T04:19:26.207Z,4.92
2023-05-08T04:20:26.315Z,4.92
2023-05-08T04:21:26.373Z,4.94
2023-05-08T04:22:26.487Z,5.00
2023-05-08T04:23:26.534Z,5.02
2023-05-08T04:24:26.669Z,5.00
2023-05-08T04:25:26.702Z,4.99
2023-05-08T04:26:26.786Z,5.04
2023-05-08T04:27:26.876Z,5.03
2023-05-08T04:28:27.012Z,5.04
2023-05-08T04:29:27.084Z,5.09
2023-05-08T04:30:27.155Z,5.06
2023-05-08T04:31:27.392Z,5.07
2023-05-08T04:32:27.344Z,5.12
2023-05-08T04:33:27.460Z,5.13
2023-05-08T04:34:27.506Z,5.15
2023-05-08T04:35:27.579Z,5.17
2023-05-08T04:36:27.686Z,5.17
2023-05-08T04:37:27.725Z,5.21
2023-05-08T04:38:27.864Z,5.25
2023-05-08T04:39:27.880Z,5.28
2023-05-08T04:40:27.998Z,5.30
2023-05-08T04:41:28.072Z,5.38
2023-05-08T04:42:28.139Z,5.39
2023-05-08T04:43:28.176Z,5.42
2023-05-08T04:44:28.292Z,5.42
2023-05-08T04:45:28.387Z,5.51
2023-05-08T04:46:28.493Z,5.51
2023-05-08T04:47:28.534Z,5.57
2023-05-08T04:48:28.612Z,5.60
2023-05-08T04:49:28.700Z,5.60
2023-05-08T04:50:28.808Z,5.68
2023-05-08T04:51:28.854Z,5.74
2023-05-08T04:52:28.933Z,5.78
2023-05-08T04:53:29.020Z,5.83
2023-05-08T04:54:29.088Z,5.89
2023-05-08T04:55:29.232Z,5.99
2023-05-08T04:56:29.234Z,6.00
2023-05-08T04:57:29.328Z,6.12
2023-05-08T04:58:29.410Z,6.18
2023-05-08T04:59:29.471Z,6.19
2023-05-08T05:00:29.575Z,6.28
2023-05-08T05:01:29.679Z,6.28
2023-05-08T05:02:29.765Z,6.36
2023-05-08T05:03:29.808Z,6.41
2023-05-08T05:04:29.902Z,6.48
2023-05-08T05:05:29.952Z,6.51
2023-05-08T05:06:30.013Z,6.59
2023-05-08T05:07:30.184Z,6.64
2023-05-08T05:08:30.167Z,6.71
2023-05-08T05:09:30.263Z,6.74
2023-05-08T05:10:30.357Z,6.87
2023-05-08T05:11:30.494Z,6.85
2023-05-08T05:12:30.543Z,6.91
2023-05-08T05:13:30.620Z,6.97
2023-05-08T05:14:30.686Z,6.98
2023-05-08T05:15:30.752Z,7.06
2023-05-08T05:16:30.959Z,7.13
2023-05-08T05:17:30.960Z,7.15
2023-05-08T05:18:31.042Z,7.21
2023-05-08T05:19:31.110Z,7.25
2023-05-08T05:20:31.175Z,7.25
2023-05-08T05:21:31.278Z,7.31
2023-05-08T05:22:31.405Z,7.35
2023-05-08T05:23:31.474Z,7.39
2023-05-08T05:24:31.570Z,7.35
2023-05-08T05:25:31.605Z,7.43
2023-05-08T05:26:31.686Z,7.50
2023-05-08T05:27:31.760Z,7.53
2023-05-08T05:28:31.913Z,7.55
2023-05-08T05:29:31.912Z,7.53
2023-05-08T05:30:31.965Z,7.60
2023-05-08T05:31:32.080Z,7.60
2023-05-08T05:32:32.274Z,7.60
2023-05-08T05:33:32.239Z,7.60
2023-05-08T05:34:32.307Z,7.60
2023-05-08T05:35:32.438Z,7.61
2023-05-08T05:36:32.503Z,7.61
2023-05-08T05:37:32.588Z,7.67
2023-05-08T05:38:32.671Z,7.61
2023-05-08T05:39:32.731Z,7.68
2023-05-08T05:40:32.874Z,7.77
2023-05-08T05:41:32.935Z,7.79
2023-05-08T05:42:32.988Z,7.86
2023-05-08T05:43:33.052Z,7.89
2023-05-08T05:44:33.173Z,8.01
2023-05-08T05:45:33.740Z,7.98
2023-05-08T05:46:33.330Z,8.04
2023-05-08T05:47:33.475Z,8.01
2023-05-08T05:48:33.500Z,8.07
2023-05-08T05:49:33.668Z,8.07
2023-05-08T05:50:34.636Z,8.10
2023-05-08T05:51:33.718Z,8.12
2023-05-08T05:52:33.823Z,8.18
2023-05-08T05:53:33.909Z,8.19
2023-05-08T05:54:34.036Z,8.23
2023-05-08T05:55:34.084Z,8.22
2023-05-08T05:56:34.215Z,8.30
2023-05-08T05:57:34.262Z,8.34
2023-05-08T05:58:34.338Z,8.34
2023-05-08T05:59:34.454Z,8.43
2023-05-08T06:00:34.501Z,8.48
2023-05-08T06:01:34.598Z,8.50
2023-05-08T06:02:34.776Z,8.59
2023-05-08T06:03:34.958Z,8.56
2023-05-08T06:04:35.013Z,8.59
2023-05-08T06:05:34.938Z,8.62
2023-05-08T06:06:35.044Z,8.74
2023-05-08T06:07:35.108Z,8.76
2023-05-08T06:08:35.208Z,8.73
2023-05-08T06:09:35.288Z,8.84
2023-05-08T06:10:35.379Z,8.87
2023-05-08T06:11:35.494Z,8.87
2023-05-08T06:12:35.550Z,8.84
2023-05-08T06:13:35.634Z,8.94
2023-05-08T06:14:35.731Z,8.96
2023-05-08T06:15:35.773Z,8.99
2023-05-08T06:16:35.941Z,9.04
2023-05-08T06:17:35.967Z,9.17
2023-05-08T06:18:35.999Z,9.20
2023-05-08T06:19:36.075Z,9.29
2023-05-08T06:20:36.159Z,9.39
2023-05-08T06:21:36.412Z,9.51
2023-05-08T06:22:36.764Z,9.57
2023-05-08T06:23:37.432Z,9.61
2023-05-08T06:24:36.476Z,9.69
2023-05-08T06:25:36.535Z,9.75
2023-05-08T06:26:36.633Z,9.76
2023-05-08T06:27:36.711Z,9.76
2023-05-08T06:28:36.781Z,9.79
2023-05-08T06:29:36.925Z,9.79
2023-05-08T06:30:37.000Z,9.89
2023-05-08T06:31:37.048Z,9.97
2023-05-08T06:32:37.142Z,9.99
2023-05-08T06:33:37.193Z,10.01
2023-05-08T06:34:37.344Z,10.08
2023-05-08T06:35:37.540Z,10.08
2023-05-08T06:36:37.517Z,10.11
2023-05-08T06:37:37.598Z,10.14
2023-05-08T06:38:37.632Z,10.26
2023-05-08T06:39:37.717Z,10.41
2023-05-08T06:40:37.734Z,10.53
2023-05-08T06:41:37.846Z,10.52
2023-05-08T06:42:37.915Z,10.45
2023-05-08T06:43:38.030Z,10.33
2023-05-08T06:44:38.067Z,10.47
2023-05-08T06:45:38.116Z,10.36
2023-05-08T06:46:38.297Z,10.40
2023-05-08T06:47:38.394Z,10.45
2023-05-08T06:48:38.403Z,10.48
2023-05-08T06:49:38.480Z,10.56
2023-05-08T06:50:38.536Z,10.67
2023-05-08T06:51:38.636Z,10.68
2023-05-08T06:52:38.934Z,10.66
2023-05-08T06:53:38.813Z,10.64
2023-05-08T06:54:38.934Z,10.63
2023-05-08T06:55:38.984Z,10.70
2023-05-08T06:56:39.076Z,10.74
2023-05-08T06:57:39.124Z,10.74
2023-05-08T06:58:39.227Z,10.76
2023-05-08T06:59:39.322Z,10.73
2023-05-08T07:00:39.416Z,10.67
2023-05-08T07:01:39.584Z,10.88
2023-05-08T07:02:39.584Z,10.91
2023-05-08T07:03:39.639Z,10.99
2023-05-08T07:04:39.750Z,11.03
2023-05-08T07:05:39.822Z,10.96
2023-05-08T07:06:39.933Z,11.03
2023-05-08T07:07:39.944Z,11.03
2023-05-08T07:08:40.047Z,11.18
2023-05-08T07:09:40.127Z,11.15
2023-05-08T07:10:40.273Z,11.24
2023-05-08T07:11:40.328Z,11.29
2023-05-08T07:12:40.435Z,11.32
2023-05-08T07:13:40.491Z,11.35
2023-05-08T07:14:40.572Z,11.44
2023-05-08T07:15:40.738Z,11.52
2023-05-08T07:16:40.871Z,11.58
2023-05-08T07:17:40.863Z,11.57
2023-05-08T07:18:40.907Z,11.52
2023-05-08T07:19:41.007Z,11.51
2023-05-08T07:20:41.068Z,11.61
2023-05-08T07:21:41.243Z,11.64
2023-05-08T07:22:41.264Z,11.75
2023-05-08T07:23:41.326Z,11.85
2023-05-08T07:24:41.414Z,11.96
2023-05-08T07:25:41.529Z,12.05
2023-05-08T07:26:41.584Z,12.02
2023-05-08T07:27:41.636Z,12.01
2023-05-08T07:28:41.772Z,12.09
2023-05-08T07:29:41.827Z,12.12
2023-05-08T07:30:41.897Z,12.17
2023-05-08T07:31:42.053Z,12.20
2023-05-08T07:32:42.140Z,12.19
2023-05-08T07:33:42.131Z,12.16
2023-05-08T07:34:42.236Z,12.13
2023-05-08T07:35:42.331Z,12.21
2023-05-08T07:36:42.393Z,12.29
2023-05-08T07:37:42.489Z,12.35
2023-05-08T07:38:42.533Z,12.46
2023-05-08T07:39:42.613Z,12.52
2023-05-08T07:40:42.711Z,12.60
2023-05-08T07:41:42.827Z,12.57
2023-05-08T07:42:42.922Z,12.57
2023-05-08T07:43:43.017Z,12.59
2023-05-08T07:44:53.833Z,12.60
2023-05-08T07:45:44.169Z,12.64
2023-05-08T07:46:43.290Z,12.70
2023-05-08T07:47:43.436Z,12.56
2023-05-08T07:48:43.452Z,12.54
2023-05-08T07:49:43.524Z,12.64
2023-05-08T07:50:43.600Z,12.68
2023-05-08T07:51:43.731Z,12.64
2023-05-08T07:52:43.786Z,12.72
2023-05-08T07:53:44.021Z,12.82
2023-05-08T07:54:44.023Z,12.85
2023-05-08T07:55:44.011Z,12.87
2023-05-08T07:56:44.057Z,12.87
2023-05-08T07:57:44.156Z,12.74
2023-05-08T07:58:44.265Z,12.70
2023-05-08T07:59:44.350Z,12.67
2023-05-08T08:00:44.448Z,12.60
2023-05-08T08:01:44.481Z,12.64
2023-05-08T08:02:44.732Z,12.71
2023-05-08T08:03:44.724Z,12.89
2023-05-08T08:04:44.718Z,12.95
2023-05-08T08:05:45.773Z,13.08
2023-05-08T08:06:44.868Z,13.20
2023-05-08T08:07:44.983Z,13.28
2023-05-08T08:08:45.052Z,13.32
2023-05-08T08:09:45.096Z,13.30
2023-05-08T08:10:45.211Z,13.36
2023-05-08T08:11:45.299Z,13.41
2023-05-08T08:12:45.401Z,13.46
2023-05-08T08:13:45.472Z,13.44
2023-05-08T08:14:45.588Z,13.46
2023-05-08T08:15:45.715Z,13.60
2023-05-08T08:16:45.803Z,13.69
2023-05-08T08:17:45.850Z,13.67
2023-05-08T08:18:45.913Z,13.59
2023-05-08T08:19:47.053Z,13.64
2023-05-08T08:20:46.097Z,13.67
2023-05-08T08:21:46.215Z,13.73
2023-05-08T08:22:46.263Z,13.71
2023-05-08T08:23:46.319Z,13.71
2023-05-08T08:24:46.410Z,13.73
2023-05-08T08:25:46.522Z,13.66
2023-05-08T08:26:46.596Z,13.71
2023-05-08T08:27:46.690Z,13.69
2023-05-08T08:28:46.740Z,13.73
2023-05-08T08:29:46.847Z,13.79
2023-05-08T08:30:46.965Z,13.87
2023-05-08T08:31:46.983Z,13.87
2023-05-08T08:32:47.130Z,13.85
2023-05-08T08:33:47.147Z,13.85
2023-05-08T08:34:47.229Z,13.91
2023-05-08T08:35:47.411Z,13.95
2023-05-08T08:36:47.434Z,13.97
2023-05-08T08:37:47.495Z,13.95
2023-05-08T08:38:47.607Z,14.02
2023-05-08T08:39:47.658Z,14.00
2023-05-08T08:40:47.750Z,14.00
2023-05-08T08:41:47.808Z,14.06
2023-05-08T08:42:47.924Z,14.15
2023-05-08T08:43:48.037Z,14.17
2023-05-08T08:44:48.077Z,14.09
2023-05-08T08:45:48.163Z,14.09
2023-05-08T08:46:48.289Z,14.21
2023-05-08T08:47:48.422Z,14.24
2023-05-08T08:48:48.429Z,14.22
2023-05-08T08:49:48.523Z,14.10
2023-05-08T08:50:48.608Z,14.12
2023-05-08T08:51:48.751Z,14.07
2023-05-08T08:52:48.830Z,13.91
2023-05-08T08:53:48.859Z,13.92
2023-05-08T08:54:48.973Z,13.99
2023-05-08T08:55:49.035Z,14.09
2023-05-08T08:56:49.119Z,14.00
2023-05-08T08:57:49.191Z,14.06
2023-05-08T08:58:49.332Z,14.10
2023-05-08T08:59:49.380Z,14.10
2023-05-08T09:00:49.508Z,14.15
2023-05-08T09:01:49.598Z,14.18
2023-05-08T09:02:49.713Z,14.36
2023-05-08T09:03:50.084Z,14.47
2023-05-08T09:04:49.796Z,14.51
2023-05-08T09:05:49.910Z,14.43
2023-05-08T09:06:49.979Z,14.57
2023-05-08T09:07:50.155Z,14.52
2023-05-08T09:08:50.161Z,14.61
2023-05-08T09:09:50.231Z,14.69
2023-05-08T09:10:50.341Z,14.77
2023-05-08T09:11:50.396Z,14.83
2023-05-08T09:12:50.500Z,14.81
2023-05-08T09:13:50.549Z,14.52
2023-05-08T09:14:50.645Z,14.51
2023-05-08T09:15:50.814Z,14.47
2023-05-08T09:16:50.927Z,14.61
2023-05-08T09:17:50.947Z,14.75
2023-05-08T09:18:50.964Z,14.77
2023-05-08T09:19:51.070Z,14.69
2023-05-08T09:20:51.202Z,14.61
2023-05-08T09:21:51.226Z,14.54
2023-05-08T09:22:51.307Z,14.65
2023-05-08T09:23:51.455Z,14.72
2023-05-08T09:24:51.464Z,14.80
2023-05-08T09:25:51.531Z,14.88
2023-05-08T09:26:51.622Z,14.94
2023-05-08T09:27:51.743Z,14.89
2023-05-08T09:28:51.813Z,14.88
2023-05-08T09:29:51.885Z,14.81
2023-05-08T09:30:51.996Z,14.80
2023-05-08T09:31:52.119Z,14.84
2023-05-08T09:32:52.194Z,14.95
2023-05-08T09:33:52.276Z,14.99
2023-05-08T09:34:52.322Z,15.11
2023-05-08T09:35:52.405Z,15.31
2023-05-08T09:36:52.479Z,15.44
2023-05-08T09:37:52.563Z,15.47
2023-05-08T09:38:52.623Z,15.50
2023-05-08T09:39:52.755Z,15.46
2023-05-08T09:40:52.822Z,15.39
2023-05-08T09:41:52.875Z,15.43
2023-05-08T09:42:52.984Z,15.53
2023-05-08T09:43:53.082Z,15.64
2023-05-08T09:44:53.201Z,15.71
2023-05-08T09:45:53.285Z,15.83
2023-05-08T09:46:53.344Z,15.76
2023-05-08T09:47:53.457Z,15.62
2023-05-08T09:48:53.527Z,15.59
2023-05-08T09:49:53.623Z,15.49
2023-05-08T09:50:53.682Z,15.50
2023-05-08T09:51:53.773Z,15.57
2023-05-08T09:52:53.862Z,15.60
2023-05-08T09:53:53.900Z,15.71
2023-05-08T09:54:53.988Z,15.92
2023-05-08T09:55:54.078Z,16.09
2023-05-08T09:56:54.091Z,16.11
2023-05-08T09:57:54.198Z,16.02
2023-05-08T09:58:54.253Z,15.94
2023-05-08T09:59:54.437Z,15.90
2023-05-08T10:00:54.483Z,15.87
2023-05-08T10:01:54.585Z,15.84
2023-05-08T10:02:54.629Z,15.76
2023-05-08T10:03:54.715Z,15.75
2023-05-08T10:04:54.793Z,15.69
2023-05-08T10:05:54.868Z,15.75
2023-05-08T10:06:56.538Z,15.76
2023-05-08T10:07:55.004Z,15.92
2023-05-08T10:08:55.091Z,16.08
2023-05-08T10:09:55.196Z,16.24
2023-05-08T10:10:55.342Z,16.39
2023-05-08T10:11:55.459Z,16.49
2023-05-08T10:12:55.544Z,16.49
2023-05-08T10:13:55.554Z,16.60
2023-05-08T10:14:55.655Z,16.67
2023-05-08T10:15:55.772Z,16.63
2023-05-08T10:16:55.877Z,16.53
2023-05-08T10:17:55.949Z,16.60
2023-05-08T10:18:55.965Z,16.42
2023-05-08T10:19:56.056Z,16.27
2023-05-08T10:20:56.159Z,16.28
2023-05-08T10:21:56.273Z,16.30
2023-05-08T10:22:56.322Z,16.23
2023-05-08T10:23:56.405Z,16.30
2023-05-08T10:24:56.521Z,16.56
2023-05-08T10:25:56.589Z,16.63
2023-05-08T10:27:06.184Z,16.75
2023-05-08T10:27:57.820Z,16.82
2023-05-08T10:28:56.831Z,17.01
2023-05-08T10:29:56.900Z,17.07
2023-05-08T10:30:57.047Z,16.97
2023-05-08T10:31:57.099Z,16.86
2023-05-08T10:32:57.162Z,16.86
2023-05-08T10:33:57.243Z,16.76
2023-05-08T10:34:57.309Z,16.83
2023-05-08T10:35:57.359Z,16.88
2023-05-08T10:36:57.456Z,16.78
2023-05-08T10:37:57.612Z,16.85
2023-05-08T10:38:57.604Z,17.00
2023-05-08T10:39:57.757Z,17.07
2023-05-08T10:40:57.798Z,17.14
2023-05-08T10:41:57.897Z,17.16
2023-05-08T10:42:58.000Z,17.15
2023-05-08T10:43:58.801Z,17.15
2023-05-08T10:44:58.140Z,17.19
2023-05-08T10:45:58.273Z,17.03
2023-05-08T10:46:58.369Z,16.94
2023-05-08T10:47:58.494Z,17.04
2023-05-08T10:48:58.517Z,17.26
2023-05-08T10:49:58.634Z,17.28
2023-05-08T10:50:58.769Z,17.23
2023-05-08T10:51:58.767Z,17.28
2023-05-08T10:52:58.839Z,17.33
2023-05-08T10:53:58.953Z,17.46
2023-05-08T10:54:59.033Z,17.63
2023-05-08T10:55:59.083Z,17.71
2023-05-08T10:56:59.146Z,17.71
2023-05-08T10:57:59.248Z,17.58
2023-05-08T10:58:59.345Z,17.40
2023-05-08T10:59:59.430Z,17.23
2023-05-08T11:00:59.587Z,17.37
2023-05-08T11:01:59.589Z,17.54
2023-05-08T11:02:59.740Z,17.59
2023-05-08T11:03:59.851Z,17.48
2023-05-08T11:04:59.902Z,17.55
2023-05-08T11:05:59.941Z,17.71
2023-05-08T11:07:00.063Z,17.86
2023-05-08T11:08:00.175Z,17.99
2023-05-08T11:09:00.914Z,18.07
2023-05-08T11:10:00.452Z,17.89
2023-05-08T11:11:00.375Z,17.86
2023-05-08T11:12:00.403Z,17.99
2023-05-08T11:13:00.518Z,18.14
2023-05-08T11:14:00.582Z,18.11
2023-05-08T11:15:00.672Z,18.08
2023-05-08T11:16:00.847Z,17.92
2023-05-08T11:17:00.855Z,17.89
2023-05-08T11:18:00.919Z,17.62
2023-05-08T11:19:00.959Z,17.63
2023-05-08T11:20:01.089Z,17.58
2023-05-08T11:21:01.159Z,17.49
2023-05-08T11:22:01.203Z,17.64
2023-05-08T11:23:01.291Z,17.77
2023-05-08T11:24:01.381Z,17.95
2023-05-08T11:25:01.518Z,18.07
2023-05-08T11:26:01.563Z,18.15
2023-05-08T11:27:01.659Z,18.12
2023-05-08T11:28:01.738Z,18.07
2023-05-08T11:29:01.841Z,18.10
2023-05-08T11:30:01.933Z,18.27
2023-05-08T11:31:01.962Z,18.42
2023-05-08T11:32:02.151Z,18.58
2023-05-08T11:33:02.148Z,18.67
2023-05-08T11:34:02.159Z,18.63
2023-05-08T11:35:02.265Z,18.69
2023-05-08T11:36:02.332Z,18.60
2023-05-08T11:37:02.525Z,18.66
2023-05-08T11:38:02.469Z,18.54
2023-05-08T11:39:02.606Z,18.42
2023-05-08T11:40:02.615Z,18.17
2023-05-08T11:41:02.710Z,18.11
2023-05-08T11:42:02.803Z,18.12
2023-05-08T11:43:02.864Z,18.27
2023-05-08T11:44:03.347Z,18.47
2023-05-08T11:45:03.062Z,18.62
2023-05-08T11:46:03.104Z,18.73
2023-05-08T11:47:03.249Z,18.85
2023-05-08T11:48:03.431Z,18.82
2023-05-08T11:49:03.425Z,18.90
2023-05-08T11:50:03.453Z,18.92
2023-05-08T11:51:03.565Z,18.92
2023-05-08T11:52:03.615Z,18.87
2023-05-08T11:53:03.678Z,18.76
2023-05-08T11:54:03.809Z,18.73
2023-05-08T11:55:03.881Z,18.69
2023-05-08T11:56:03.978Z,18.76
2023-05-08T11:57:04.034Z,18.92
2023-05-08T11:58:04.098Z,19.07
2023-05-08T11:59:04.234Z,18.81
2023-05-08T12:00:04.317Z,18.75
2023-05-08T12:01:04.555Z,18.72
2023-05-08T12:02:09.243Z,18.73
2023-05-08T12:03:05.724Z,18.92
2023-05-08T12:04:04.860Z,19.18
2023-05-08T12:05:04.892Z,19.33
2023-05-08T12:06:04.775Z,19.44
2023-05-08T12:07:04.872Z,19.33
2023-05-08T12:08:04.973Z,19.11
2023-05-08T12:09:05.055Z,19.21
2023-05-08T12:10:05.175Z,19.11
2023-05-08T12:11:05.208Z,19.16
2023-05-08T12:12:05.252Z,19.32
2023-05-08T12:13:05.370Z,19.37
2023-05-08T12:14:05.418Z,19.40
2023-05-08T12:15:05.539Z,19.28
2023-05-08T12:16:05.638Z,19.18
2023-05-08T12:17:05.755Z,19.13
2023-05-08T12:18:05.855Z,19.22
2023-05-08T12:19:05.885Z,19.41
2023-05-08T12:20:05.949Z,19.46
2023-05-08T12:21:06.091Z,19.43
2023-05-08T12:22:06.129Z,19.31
2023-05-08T12:23:06.221Z,19.08
2023-05-08T12:24:06.337Z,19.00
2023-05-08T12:25:06.422Z,18.91
2023-05-08T12:26:06.534Z,18.95
2023-05-08T12:27:06.550Z,18.92
2023-05-08T12:28:06.603Z,18.88
2023-05-08T12:29:06.687Z,19.08
2023-05-08T12:30:06.747Z,19.28
2023-05-08T12:31:06.873Z,19.51
2023-05-08T12:32:06.929Z,19.55
2023-05-08T12:33:07.077Z,19.63
2023-05-08T12:34:07.081Z,19.74
2023-05-08T12:35:07.156Z,19.77
2023-05-08T12:36:07.253Z,19.59
2023-05-08T12:37:07.373Z,19.58
2023-05-08T12:38:07.408Z,19.54
2023-05-08T12:39:07.489Z,19.62
2023-05-08T12:40:07.589Z,19.68
2023-05-08T12:41:07.615Z,19.65
2023-05-08T12:42:07.718Z,19.81
2023-05-08T12:43:07.764Z,19.84
2023-05-08T12:44:07.856Z,19.81
2023-05-08T12:45:07.972Z,19.95
2023-05-08T12:46:08.038Z,20.08
2023-05-08T12:47:08.106Z,19.99
2023-05-08T12:48:08.253Z,20.10
2023-05-08T12:49:08.257Z,20.01
2023-05-08T12:50:08.377Z,19.81
2023-05-08T12:51:08.466Z,19.80
2023-05-08T12:52:08.541Z,19.95
2023-05-08T12:53:08.603Z,19.83
2023-05-08T12:54:08.688Z,19.86
2023-05-08T12:55:08.783Z,19.80
2023-05-08T12:56:08.859Z,19.76
2023-05-08T12:57:08.921Z,19.88
2023-05-08T12:58:12.001Z,19.76
2023-05-08T12:59:10.140Z,19.66
2023-05-08T13:00:09.202Z,19.69
2023-05-08T13:01:09.291Z,19.83
2023-05-08T13:02:09.445Z,20.03
2023-05-08T13:03:09.598Z,20.17
2023-05-08T13:04:09.730Z,20.29
2023-05-08T13:05:09.622Z,20.51
2023-05-08T13:06:09.713Z,20.73
2023-05-08T13:07:09.895Z,20.79